sensor_id;sensor_type;location;lat;lon;timestamp;P1;durP1;ratioP1;P2;durP2;ratioP2
12350;SDS011;6240;51.538;7.696;2023-02-01T00:02:18;26.60;;;12.10;;
12350;SDS011;6240;51.538;7.696;2023-02-01T00:04:45;28.07;;;12.77;;
12350;SDS011;6240;51.538;7.696;2023-02-01T00:07:12;22.23;;;12.40;;
12350;SDS011;6240;51.538;7.696;2023-02-01T00:09:40;24.03;;;11.63;;
12350;SDS011;6240;51.538;7.696;2023-02-01T00:12:07;22.47;;;12.80;;
12350;SDS011;6240;51.538;7.696;2023-02-01T00:14:34;24.13;;;11.33;;
12350;SDS011;6240;51.538;7.696;2023-02-01T00:17:03;22.77;;;11.57;;
12350;SDS011;6240;51.538;7.696;2023-02-01T00:19:32;23.50;;;11.37;;
12350;SDS011;6240;51.538;7.696;2023-02-01T00:22:00;20.77;;;10.20;;
12350;SDS011;6240;51.538;7.696;2023-02-01T00:24:27;22.00;;;12.07;;
12350;SDS011;6240;51.538;7.696;2023-02-01T00:26:54;20.80;;;9.90;;
12350;SDS011;6240;51.538;7.696;2023-02-01T00:29:22;21.90;;;10.77;;
12350;SDS011;6240;51.538;7.696;2023-02-01T00:31:49;16.97;;;10.00;;
12350;SDS011;6240;51.538;7.696;2023-02-01T00:34:17;21.17;;;10.57;;
12350;SDS011;6240;51.538;7.696;2023-02-01T00:36:45;20.77;;;9.67;;
12350;SDS011;6240;51.538;7.696;2023-02-01T00:39:12;18.90;;;10.57;;
12350;SDS011;6240;51.538;7.696;2023-02-01T00:41:40;24.07;;;9.63;;
12350;SDS011;6240;51.538;7.696;2023-02-01T00:44:07;21.33;;;9.57;;
12350;SDS011;6240;51.538;7.696;2023-02-01T00:46:34;20.07;;;8.97;;
12350;SDS011;6240;51.538;7.696;2023-02-01T00:49:01;15.17;;;8.80;;
12350;SDS011;6240;51.538;7.696;2023-02-01T00:51:29;19.97;;;9.17;;
12350;SDS011;6240;51.538;7.696;2023-02-01T00:53:57;16.77;;;8.17;;
12350;SDS011;6240;51.538;7.696;2023-02-01T00:56:25;24.47;;;8.67;;
12350;SDS011;6240;51.538;7.696;2023-02-01T00:58:53;17.37;;;7.00;;
12350;SDS011;6240;51.538;7.696;2023-02-01T01:01:21;22.80;;;6.87;;
12350;SDS011;6240;51.538;7.696;2023-02-01T01:03:49;16.83;;;7.40;;
12350;SDS011;6240;51.538;7.696;2023-02-01T01:06:17;18.67;;;6.47;;
12350;SDS011;6240;51.538;7.696;2023-02-01T01:08:44;16.50;;;6.30;;
12350;SDS011;6240;51.538;7.696;2023-02-01T01:11:14;12.60;;;4.77;;
12350;SDS011;6240;51.538;7.696;2023-02-01T01:13:42;15.63;;;5.37;;
12350;SDS011;6240;51.538;7.696;2023-02-01T01:16:10;16.00;;;4.80;;
12350;SDS011;6240;51.538;7.696;2023-02-01T01:18:37;14.53;;;5.07;;
12350;SDS011;6240;51.538;7.696;2023-02-01T01:21:05;13.03;;;5.20;;
12350;SDS011;6240;51.538;7.696;2023-02-01T01:23:32;16.07;;;5.70;;
12350;SDS011;6240;51.538;7.696;2023-02-01T01:26:00;21.70;;;5.00;;
12350;SDS011;6240;51.538;7.696;2023-02-01T01:28:28;11.43;;;4.90;;
12350;SDS011;6240;51.538;7.696;2023-02-01T01:30:55;15.97;;;4.80;;
12350;SDS011;6240;51.538;7.696;2023-02-01T01:33:22;14.93;;;4.43;;
12350;SDS011;6240;51.538;7.696;2023-02-01T01:35:50;18.23;;;4.63;;
12350;SDS011;6240;51.538;7.696;2023-02-01T01:38:17;14.13;;;4.53;;
12350;SDS011;6240;51.538;7.696;2023-02-01T01:40:44;18.80;;;4.40;;
12350;SDS011;6240;51.538;7.696;2023-02-01T01:43:12;17.27;;;5.00;;
12350;SDS011;6240;51.538;7.696;2023-02-01T01:45:41;16.40;;;4.33;;
12350;SDS011;6240;51.538;7.696;2023-02-01T01:48:09;13.27;;;4.00;;
12350;SDS011;6240;51.538;7.696;2023-02-01T01:50:39;14.07;;;4.00;;
12350;SDS011;6240;51.538;7.696;2023-02-01T01:53:08;18.70;;;4.73;;
12350;SDS011;6240;51.538;7.696;2023-02-01T01:55:37;11.33;;;4.07;;
12350;SDS011;6240;51.538;7.696;2023-02-01T01:58:08;15.43;;;3.53;;
12350;SDS011;6240;51.538;7.696;2023-02-01T02:00:37;12.63;;;3.97;;
12350;SDS011;6240;51.538;7.696;2023-02-01T02:03:07;16.47;;;4.33;;
12350;SDS011;6240;51.538;7.696;2023-02-01T02:05:38;23.17;;;4.87;;
12350;SDS011;6240;51.538;7.696;2023-02-01T02:08:05;10.63;;;4.70;;
12350;SDS011;6240;51.538;7.696;2023-02-01T02:10:32;12.93;;;4.40;;
12350;SDS011;6240;51.538;7.696;2023-02-01T02:13:17;14.30;;;4.23;;
12350;SDS011;6240;51.538;7.696;2023-02-01T02:15:45;11.00;;;4.20;;
12350;SDS011;6240;51.538;7.696;2023-02-01T02:18:19;14.83;;;4.53;;
12350;SDS011;6240;51.538;7.696;2023-02-01T02:20:52;12.20;;;4.13;;
12350;SDS011;6240;51.538;7.696;2023-02-01T02:26:23;12.50;;;4.60;;
12350;SDS011;6240;51.538;7.696;2023-02-01T02:28:57;16.00;;;4.20;;
12350;SDS011;6240;51.538;7.696;2023-02-01T02:31:40;15.33;;;4.67;;
12350;SDS011;6240;51.538;7.696;2023-02-01T02:34:16;14.53;;;5.00;;
12350;SDS011;6240;51.538;7.696;2023-02-01T02:36:48;14.43;;;4.30;;
12350;SDS011;6240;51.538;7.696;2023-02-01T02:39:20;17.07;;;4.50;;
12350;SDS011;6240;51.538;7.696;2023-02-01T02:41:49;14.50;;;5.20;;
12350;SDS011;6240;51.538;7.696;2023-02-01T02:44:39;16.80;;;4.93;;
12350;SDS011;6240;51.538;7.696;2023-02-01T02:47:29;15.70;;;4.63;;
12350;SDS011;6240;51.538;7.696;2023-02-01T02:50:04;10.90;;;3.93;;
12350;SDS011;6240;51.538;7.696;2023-02-01T02:52:54;17.23;;;4.63;;
12350;SDS011;6240;51.538;7.696;2023-02-01T02:55:41;19.47;;;4.60;;
12350;SDS011;6240;51.538;7.696;2023-02-01T02:58:09;15.63;;;5.27;;
12350;SDS011;6240;51.538;7.696;2023-02-01T03:00:55;14.37;;;4.17;;
12350;SDS011;6240;51.538;7.696;2023-02-01T03:03:42;13.00;;;4.40;;
12350;SDS011;6240;51.538;7.696;2023-02-01T03:06:28;16.93;;;4.90;;
12350;SDS011;6240;51.538;7.696;2023-02-01T03:08:56;18.80;;;4.90;;
12350;SDS011;6240;51.538;7.696;2023-02-01T03:11:25;16.40;;;4.53;;
12350;SDS011;6240;51.538;7.696;2023-02-01T03:14:13;14.00;;;4.33;;
12350;SDS011;6240;51.538;7.696;2023-02-01T03:16:41;14.50;;;4.90;;
12350;SDS011;6240;51.538;7.696;2023-02-01T03:19:11;12.27;;;4.43;;
12350;SDS011;6240;51.538;7.696;2023-02-01T03:21:43;13.43;;;4.27;;
12350;SDS011;6240;51.538;7.696;2023-02-01T03:24:13;13.07;;;4.30;;
12350;SDS011;6240;51.538;7.696;2023-02-01T03:26:43;17.50;;;4.13;;
12350;SDS011;6240;51.538;7.696;2023-02-01T03:29:12;12.33;;;3.67;;
12350;SDS011;6240;51.538;7.696;2023-02-01T03:31:40;14.63;;;4.33;;
12350;SDS011;6240;51.538;7.696;2023-02-01T03:34:08;16.40;;;4.97;;
12350;SDS011;6240;51.538;7.696;2023-02-01T03:36:37;14.77;;;4.07;;
12350;SDS011;6240;51.538;7.696;2023-02-01T03:39:09;16.80;;;4.17;;
12350;SDS011;6240;51.538;7.696;2023-02-01T03:41:40;17.97;;;4.17;;
12350;SDS011;6240;51.538;7.696;2023-02-01T03:44:10;23.13;;;4.57;;
12350;SDS011;6240;51.538;7.696;2023-02-01T03:46:39;14.50;;;4.30;;
12350;SDS011;6240;51.538;7.696;2023-02-01T03:49:08;12.33;;;3.73;;
12350;SDS011;6240;51.538;7.696;2023-02-01T03:51:37;14.60;;;3.53;;
12350;SDS011;6240;51.538;7.696;2023-02-01T03:54:05;12.57;;;3.73;;
12350;SDS011;6240;51.538;7.696;2023-02-01T03:56:34;11.67;;;4.27;;
12350;SDS011;6240;51.538;7.696;2023-02-01T03:59:03;14.77;;;4.07;;
12350;SDS011;6240;51.538;7.696;2023-02-01T04:01:31;14.30;;;3.87;;
12350;SDS011;6240;51.538;7.696;2023-02-01T04:03:58;16.37;;;3.67;;
12350;SDS011;6240;51.538;7.696;2023-02-01T04:06:25;15.50;;;3.63;;
12350;SDS011;6240;51.538;7.696;2023-02-01T04:08:52;12.53;;;3.73;;
12350;SDS011;6240;51.538;7.696;2023-02-01T04:11:19;15.47;;;3.37;;
12350;SDS011;6240;51.538;7.696;2023-02-01T04:13:48;15.33;;;4.07;;
12350;SDS011;6240;51.538;7.696;2023-02-01T04:16:15;10.30;;;3.80;;
12350;SDS011;6240;51.538;7.696;2023-02-01T04:18:42;13.03;;;3.20;;
12350;SDS011;6240;51.538;7.696;2023-02-01T04:21:09;15.10;;;3.50;;
12350;SDS011;6240;51.538;7.696;2023-02-01T04:23:37;11.60;;;3.50;;
12350;SDS011;6240;51.538;7.696;2023-02-01T04:26:04;15.10;;;3.87;;
12350;SDS011;6240;51.538;7.696;2023-02-01T04:28:31;15.40;;;3.40;;
12350;SDS011;6240;51.538;7.696;2023-02-01T04:31:00;13.53;;;3.53;;
12350;SDS011;6240;51.538;7.696;2023-02-01T04:33:27;12.47;;;3.60;;
12350;SDS011;6240;51.538;7.696;2023-02-01T04:35:54;17.23;;;4.07;;
12350;SDS011;6240;51.538;7.696;2023-02-01T04:38:22;16.37;;;3.63;;
12350;SDS011;6240;51.538;7.696;2023-02-01T04:40:49;12.00;;;3.40;;
12350;SDS011;6240;51.538;7.696;2023-02-01T04:43:16;18.90;;;4.27;;
12350;SDS011;6240;51.538;7.696;2023-02-01T04:45:46;14.00;;;3.67;;
12350;SDS011;6240;51.538;7.696;2023-02-01T04:48:15;16.10;;;4.23;;
12350;SDS011;6240;51.538;7.696;2023-02-01T04:50:43;15.27;;;3.60;;
12350;SDS011;6240;51.538;7.696;2023-02-01T04:53:12;14.80;;;3.80;;
12350;SDS011;6240;51.538;7.696;2023-02-01T04:55:39;15.93;;;3.57;;
12350;SDS011;6240;51.538;7.696;2023-02-01T04:58:06;11.47;;;3.43;;
12350;SDS011;6240;51.538;7.696;2023-02-01T05:00:34;14.37;;;3.43;;
12350;SDS011;6240;51.538;7.696;2023-02-01T05:03:01;18.77;;;4.53;;
12350;SDS011;6240;51.538;7.696;2023-02-01T05:05:29;13.93;;;4.17;;
12350;SDS011;6240;51.538;7.696;2023-02-01T05:07:57;14.70;;;4.27;;
12350;SDS011;6240;51.538;7.696;2023-02-01T05:10:24;13.83;;;3.80;;
12350;SDS011;6240;51.538;7.696;2023-02-01T05:12:52;11.73;;;3.63;;
12350;SDS011;6240;51.538;7.696;2023-02-01T05:15:36;22.53;;;3.93;;
12350;SDS011;6240;51.538;7.696;2023-02-01T05:18:04;17.60;;;4.20;;
12350;SDS011;6240;51.538;7.696;2023-02-01T05:20:32;13.07;;;4.60;;
12350;SDS011;6240;51.538;7.696;2023-02-01T06:07:59;14.07;;;4.30;;
12350;SDS011;6240;51.538;7.696;2023-02-01T06:10:27;14.40;;;4.03;;
12350;SDS011;6240;51.538;7.696;2023-02-01T06:12:57;13.97;;;4.13;;
12350;SDS011;6240;51.538;7.696;2023-02-01T06:15:28;14.97;;;4.50;;
12350;SDS011;6240;51.538;7.696;2023-02-01T06:17:56;15.33;;;4.20;;
12350;SDS011;6240;51.538;7.696;2023-02-01T06:20:23;13.80;;;4.23;;
12350;SDS011;6240;51.538;7.696;2023-02-01T06:22:50;12.70;;;3.50;;
12350;SDS011;6240;51.538;7.696;2023-02-01T06:25:20;13.83;;;5.23;;
12350;SDS011;6240;51.538;7.696;2023-02-01T06:27:47;15.57;;;4.63;;
12350;SDS011;6240;51.538;7.696;2023-02-01T06:30:14;13.57;;;4.33;;
12350;SDS011;6240;51.538;7.696;2023-02-01T06:32:44;16.40;;;4.80;;
12350;SDS011;6240;51.538;7.696;2023-02-01T06:35:14;20.50;;;4.80;;
12350;SDS011;6240;51.538;7.696;2023-02-01T06:37:42;15.77;;;4.10;;
12350;SDS011;6240;51.538;7.696;2023-02-01T06:40:11;14.23;;;3.97;;
12350;SDS011;6240;51.538;7.696;2023-02-01T06:42:42;20.93;;;4.97;;
12350;SDS011;6240;51.538;7.696;2023-02-01T06:45:12;16.30;;;3.73;;
12350;SDS011;6240;51.538;7.696;2023-02-01T06:47:42;12.90;;;4.40;;
12350;SDS011;6240;51.538;7.696;2023-02-01T06:50:09;15.90;;;5.10;;
12350;SDS011;6240;51.538;7.696;2023-02-01T06:52:37;20.05;;;5.80;;
12350;SDS011;6240;51.538;7.696;2023-02-01T06:55:04;20.60;;;4.83;;
12350;SDS011;6240;51.538;7.696;2023-02-01T06:57:32;15.50;;;4.87;;
12350;SDS011;6240;51.538;7.696;2023-02-01T07:00:02;18.80;;;5.03;;
12350;SDS011;6240;51.538;7.696;2023-02-01T07:02:29;18.10;;;4.43;;
12350;SDS011;6240;51.538;7.696;2023-02-01T07:04:57;17.93;;;4.23;;
12350;SDS011;6240;51.538;7.696;2023-02-01T07:07:24;15.20;;;4.37;;
12350;SDS011;6240;51.538;7.696;2023-02-01T07:09:51;18.53;;;4.37;;
12350;SDS011;6240;51.538;7.696;2023-02-01T07:12:18;13.23;;;4.07;;
12350;SDS011;6240;51.538;7.696;2023-02-01T07:14:46;14.77;;;4.90;;
12350;SDS011;6240;51.538;7.696;2023-02-01T07:17:14;20.80;;;5.23;;
12350;SDS011;6240;51.538;7.696;2023-02-01T07:19:41;17.47;;;4.50;;
12350;SDS011;6240;51.538;7.696;2023-02-01T07:22:09;13.20;;;4.40;;
12350;SDS011;6240;51.538;7.696;2023-02-01T07:24:36;21.50;;;5.27;;
12350;SDS011;6240;51.538;7.696;2023-02-01T07:27:03;16.07;;;4.63;;
12350;SDS011;6240;51.538;7.696;2023-02-01T07:29:31;14.47;;;4.77;;
12350;SDS011;6240;51.538;7.696;2023-02-01T07:31:58;14.17;;;4.73;;
12350;SDS011;6240;51.538;7.696;2023-02-01T07:34:28;14.63;;;4.67;;
12350;SDS011;6240;51.538;7.696;2023-02-01T07:36:55;17.13;;;4.70;;
12350;SDS011;6240;51.538;7.696;2023-02-01T07:39:22;18.77;;;4.60;;
12350;SDS011;6240;51.538;7.696;2023-02-01T07:41:49;15.53;;;4.90;;
12350;SDS011;6240;51.538;7.696;2023-02-01T07:44:16;16.83;;;4.87;;
12350;SDS011;6240;51.538;7.696;2023-02-01T07:46:47;17.97;;;4.43;;
12350;SDS011;6240;51.538;7.696;2023-02-01T07:49:21;17.57;;;5.27;;
12350;SDS011;6240;51.538;7.696;2023-02-01T07:51:49;18.33;;;4.77;;
12350;SDS011;6240;51.538;7.696;2023-02-01T07:54:16;16.20;;;5.00;;
12350;SDS011;6240;51.538;7.696;2023-02-01T07:56:44;15.30;;;5.00;;
12350;SDS011;6240;51.538;7.696;2023-02-01T07:59:14;19.33;;;4.83;;
12350;SDS011;6240;51.538;7.696;2023-02-01T08:01:42;12.00;;;4.90;;
12350;SDS011;6240;51.538;7.696;2023-02-01T08:04:09;15.37;;;5.53;;
12350;SDS011;6240;51.538;7.696;2023-02-01T08:06:39;19.13;;;5.17;;
12350;SDS011;6240;51.538;7.696;2023-02-01T08:09:11;20.53;;;5.70;;
12350;SDS011;6240;51.538;7.696;2023-02-01T08:11:40;19.23;;;5.30;;
12350;SDS011;6240;51.538;7.696;2023-02-01T08:14:07;15.33;;;5.43;;
12350;SDS011;6240;51.538;7.696;2023-02-01T08:16:34;19.40;;;5.73;;
12350;SDS011;6240;51.538;7.696;2023-02-01T08:19:02;15.77;;;4.87;;
12350;SDS011;6240;51.538;7.696;2023-02-01T08:21:30;18.13;;;5.63;;
12350;SDS011;6240;51.538;7.696;2023-02-01T08:24:04;15.97;;;5.50;;
12350;SDS011;6240;51.538;7.696;2023-02-01T08:26:34;18.70;;;5.47;;
12350;SDS011;6240;51.538;7.696;2023-02-01T08:29:02;17.37;;;4.97;;
12350;SDS011;6240;51.538;7.696;2023-02-01T08:31:29;14.77;;;5.47;;
12350;SDS011;6240;51.538;7.696;2023-02-01T08:33:57;18.47;;;5.63;;
12350;SDS011;6240;51.538;7.696;2023-02-01T08:36:25;12.63;;;5.00;;
12350;SDS011;6240;51.538;7.696;2023-02-01T08:38:53;19.33;;;6.07;;
12350;SDS011;6240;51.538;7.696;2023-02-01T08:41:21;16.43;;;5.80;;
12350;SDS011;6240;51.538;7.696;2023-02-01T08:43:50;20.77;;;6.00;;
12350;SDS011;6240;51.538;7.696;2023-02-01T08:46:18;22.63;;;6.00;;
12350;SDS011;6240;51.538;7.696;2023-02-01T08:48:45;17.67;;;5.83;;
12350;SDS011;6240;51.538;7.696;2023-02-01T08:51:13;18.43;;;6.37;;
12350;SDS011;6240;51.538;7.696;2023-02-01T08:53:41;20.60;;;6.27;;
12350;SDS011;6240;51.538;7.696;2023-02-01T08:56:09;11.93;;;5.20;;
12350;SDS011;6240;51.538;7.696;2023-02-01T08:58:36;17.77;;;6.13;;
12350;SDS011;6240;51.538;7.696;2023-02-01T09:01:05;22.63;;;5.40;;
12350;SDS011;6240;51.538;7.696;2023-02-01T09:03:33;16.37;;;5.23;;
12350;SDS011;6240;51.538;7.696;2023-02-01T09:06:00;19.50;;;6.07;;
12350;SDS011;6240;51.538;7.696;2023-02-01T09:08:27;20.87;;;5.20;;
12350;SDS011;6240;51.538;7.696;2023-02-01T09:10:58;17.73;;;5.10;;
12350;SDS011;6240;51.538;7.696;2023-02-01T09:13:25;16.20;;;5.10;;
12350;SDS011;6240;51.538;7.696;2023-02-01T09:15:52;18.50;;;5.43;;
12350;SDS011;6240;51.538;7.696;2023-02-01T09:18:21;19.33;;;5.40;;
12350;SDS011;6240;51.538;7.696;2023-02-01T09:20:48;20.67;;;6.60;;
12350;SDS011;6240;51.538;7.696;2023-02-01T09:23:15;15.70;;;5.30;;
12350;SDS011;6240;51.538;7.696;2023-02-01T09:25:42;20.77;;;5.73;;
12350;SDS011;6240;51.538;7.696;2023-02-01T09:28:10;20.10;;;6.10;;
12350;SDS011;6240;51.538;7.696;2023-02-01T09:30:37;16.83;;;5.40;;
12350;SDS011;6240;51.538;7.696;2023-02-01T09:33:04;17.73;;;5.57;;
12350;SDS011;6240;51.538;7.696;2023-02-01T09:35:33;17.17;;;5.93;;
12350;SDS011;6240;51.538;7.696;2023-02-01T09:38:00;15.70;;;4.93;;
12350;SDS011;6240;51.538;7.696;2023-02-01T09:40:27;17.53;;;5.20;;
12350;SDS011;6240;51.538;7.696;2023-02-01T09:42:59;15.47;;;5.23;;
12350;SDS011;6240;51.538;7.696;2023-02-01T09:45:28;14.97;;;5.43;;
12350;SDS011;6240;51.538;7.696;2023-02-01T09:47:57;16.40;;;5.67;;
12350;SDS011;6240;51.538;7.696;2023-02-01T09:50:28;18.07;;;6.20;;
12350;SDS011;6240;51.538;7.696;2023-02-01T09:53:00;16.67;;;6.00;;
12350;SDS011;6240;51.538;7.696;2023-02-01T09:55:32;14.57;;;5.87;;
12350;SDS011;6240;51.538;7.696;2023-02-01T09:58:06;16.80;;;6.43;;
12350;SDS011;6240;51.538;7.696;2023-02-01T10:00:36;18.03;;;6.57;;
12350;SDS011;6240;51.538;7.696;2023-02-01T10:03:05;16.60;;;6.53;;
12350;SDS011;6240;51.538;7.696;2023-02-01T10:05:42;17.53;;;5.67;;
12350;SDS011;6240;51.538;7.696;2023-02-01T10:08:16;12.63;;;4.97;;
12350;SDS011;6240;51.538;7.696;2023-02-01T10:10:49;12.70;;;5.63;;
12350;SDS011;6240;51.538;7.696;2023-02-01T10:13:25;12.93;;;5.60;;
12350;SDS011;6240;51.538;7.696;2023-02-01T10:16:02;15.47;;;5.27;;
12350;SDS011;6240;51.538;7.696;2023-02-01T10:18:37;12.37;;;5.60;;
12350;SDS011;6240;51.538;7.696;2023-02-01T10:21:09;16.80;;;5.97;;
12350;SDS011;6240;51.538;7.696;2023-02-01T10:23:53;18.80;;;5.73;;
12350;SDS011;6240;51.538;7.696;2023-02-01T10:26:25;17.60;;;5.33;;
12350;SDS011;6240;51.538;7.696;2023-02-01T10:28:53;23.30;;;5.37;;
12350;SDS011;6240;51.538;7.696;2023-02-01T10:31:20;14.23;;;5.30;;
12350;SDS011;6240;51.538;7.696;2023-02-01T10:33:49;19.37;;;5.10;;
12350;SDS011;6240;51.538;7.696;2023-02-01T10:36:19;16.83;;;5.30;;
12350;SDS011;6240;51.538;7.696;2023-02-01T10:38:48;15.80;;;5.50;;
12350;SDS011;6240;51.538;7.696;2023-02-01T10:41:19;19.57;;;5.90;;
12350;SDS011;6240;51.538;7.696;2023-02-01T10:43:50;10.13;;;5.40;;
12350;SDS011;6240;51.538;7.696;2023-02-01T10:46:17;14.30;;;4.77;;
12350;SDS011;6240;51.538;7.696;2023-02-01T10:48:45;14.97;;;5.37;;
12350;SDS011;6240;51.538;7.696;2023-02-01T10:51:14;18.80;;;5.23;;
12350;SDS011;6240;51.538;7.696;2023-02-01T10:53:42;13.23;;;5.50;;
12350;SDS011;6240;51.538;7.696;2023-02-01T10:56:11;13.77;;;5.17;;
12350;SDS011;6240;51.538;7.696;2023-02-01T10:58:44;12.13;;;4.93;;
12350;SDS011;6240;51.538;7.696;2023-02-01T11:01:16;19.97;;;5.50;;
12350;SDS011;6240;51.538;7.696;2023-02-01T11:03:52;13.63;;;5.10;;
12350;SDS011;6240;51.538;7.696;2023-02-01T11:06:26;14.80;;;5.53;;
12350;SDS011;6240;51.538;7.696;2023-02-01T11:08:54;14.97;;;5.37;;
12350;SDS011;6240;51.538;7.696;2023-02-01T11:11:25;19.87;;;5.67;;
12350;SDS011;6240;51.538;7.696;2023-02-01T11:13:56;12.17;;;4.87;;
12350;SDS011;6240;51.538;7.696;2023-02-01T11:16:32;13.83;;;5.03;;
12350;SDS011;6240;51.538;7.696;2023-02-01T11:19:01;14.53;;;4.90;;
12350;SDS011;6240;51.538;7.696;2023-02-01T11:21:30;15.23;;;4.77;;
12350;SDS011;6240;51.538;7.696;2023-02-01T11:24:00;11.90;;;4.87;;
12350;SDS011;6240;51.538;7.696;2023-02-01T11:26:28;12.20;;;4.93;;
12350;SDS011;6240;51.538;7.696;2023-02-01T11:29:00;16.13;;;5.17;;
12350;SDS011;6240;51.538;7.696;2023-02-01T11:31:29;20.27;;;5.00;;
12350;SDS011;6240;51.538;7.696;2023-02-01T11:33:58;14.73;;;4.73;;
12350;SDS011;6240;51.538;7.696;2023-02-01T11:36:26;11.83;;;4.37;;
12350;SDS011;6240;51.538;7.696;2023-02-01T11:39:06;11.97;;;4.30;;
12350;SDS011;6240;51.538;7.696;2023-02-01T11:41:35;9.73;;;4.70;;
12350;SDS011;6240;51.538;7.696;2023-02-01T11:44:18;19.87;;;5.40;;
12350;SDS011;6240;51.538;7.696;2023-02-01T11:46:46;15.23;;;4.70;;
12350;SDS011;6240;51.538;7.696;2023-02-01T11:49:15;11.63;;;4.83;;
12350;SDS011;6240;51.538;7.696;2023-02-01T11:51:50;18.13;;;5.50;;
12350;SDS011;6240;51.538;7.696;2023-02-01T11:54:39;13.70;;;4.50;;
12350;SDS011;6240;51.538;7.696;2023-02-01T11:57:15;23.27;;;4.97;;
12350;SDS011;6240;51.538;7.696;2023-02-01T12:02:36;19.23;;;4.90;;
12350;SDS011;6240;51.538;7.696;2023-02-01T12:05:14;14.20;;;4.67;;
12350;SDS011;6240;51.538;7.696;2023-02-01T12:07:56;16.30;;;5.93;;
12350;SDS011;6240;51.538;7.696;2023-02-01T12:10:32;17.47;;;5.00;;
12350;SDS011;6240;51.538;7.696;2023-02-01T12:13:09;18.93;;;5.20;;
12350;SDS011;6240;51.538;7.696;2023-02-01T12:15:46;12.60;;;4.63;;
12350;SDS011;6240;51.538;7.696;2023-02-01T12:21:17;15.03;;;5.20;;
12350;SDS011;6240;51.538;7.696;2023-02-01T12:23:56;16.03;;;5.47;;
12350;SDS011;6240;51.538;7.696;2023-02-01T12:32:13;13.57;;;4.93;;
12350;SDS011;6240;51.538;7.696;2023-02-01T12:34:46;16.70;;;5.07;;
12350;SDS011;6240;51.538;7.696;2023-02-01T12:37:21;12.43;;;4.90;;
12350;SDS011;6240;51.538;7.696;2023-02-01T12:39:52;11.87;;;5.40;;
12350;SDS011;6240;51.538;7.696;2023-02-01T12:42:25;10.27;;;4.60;;
12350;SDS011;6240;51.538;7.696;2023-02-01T12:44:54;16.70;;;5.20;;
12350;SDS011;6240;51.538;7.696;2023-02-01T12:47:24;16.50;;;4.50;;
12350;SDS011;6240;51.538;7.696;2023-02-01T12:49:55;11.57;;;4.80;;
12350;SDS011;6240;51.538;7.696;2023-02-01T12:52:27;16.13;;;4.50;;
12350;SDS011;6240;51.538;7.696;2023-02-01T12:55:01;14.27;;;5.10;;
12350;SDS011;6240;51.538;7.696;2023-02-01T12:57:30;15.00;;;5.07;;
12350;SDS011;6240;51.538;7.696;2023-02-01T13:00:01;16.67;;;4.90;;
12350;SDS011;6240;51.538;7.696;2023-02-01T13:02:30;13.90;;;4.77;;
12350;SDS011;6240;51.538;7.696;2023-02-01T13:05:03;11.27;;;4.67;;
12350;SDS011;6240;51.538;7.696;2023-02-01T13:07:34;12.53;;;4.53;;
12350;SDS011;6240;51.538;7.696;2023-02-01T13:10:05;16.20;;;5.43;;
12350;SDS011;6240;51.538;7.696;2023-02-01T13:12:40;13.57;;;4.97;;
12350;SDS011;6240;51.538;7.696;2023-02-01T13:15:12;17.43;;;5.20;;
12350;SDS011;6240;51.538;7.696;2023-02-01T13:17:42;14.97;;;5.33;;
12350;SDS011;6240;51.538;7.696;2023-02-01T13:20:16;16.57;;;5.47;;
12350;SDS011;6240;51.538;7.696;2023-02-01T13:22:46;19.13;;;4.87;;
12350;SDS011;6240;51.538;7.696;2023-02-01T13:25:15;19.30;;;5.10;;
12350;SDS011;6240;51.538;7.696;2023-02-01T13:27:44;15.40;;;4.73;;
12350;SDS011;6240;51.538;7.696;2023-02-01T13:30:14;14.50;;;4.40;;
12350;SDS011;6240;51.538;7.696;2023-02-01T13:32:52;16.27;;;4.63;;
12350;SDS011;6240;51.538;7.696;2023-02-01T13:40:53;15.23;;;4.13;;
12350;SDS011;6240;51.538;7.696;2023-02-01T13:43:25;17.60;;;5.13;;
12350;SDS011;6240;51.538;7.696;2023-02-01T13:45:54;13.43;;;5.60;;
12350;SDS011;6240;51.538;7.696;2023-02-01T13:48:23;18.33;;;4.93;;
12350;SDS011;6240;51.538;7.696;2023-02-01T13:50:58;14.40;;;4.37;;
12350;SDS011;6240;51.538;7.696;2023-02-01T13:53:28;13.10;;;4.40;;
12350;SDS011;6240;51.538;7.696;2023-02-01T13:55:58;11.20;;;4.60;;
12350;SDS011;6240;51.538;7.696;2023-02-01T13:58:30;11.80;;;4.07;;
12350;SDS011;6240;51.538;7.696;2023-02-01T14:03:43;13.53;;;4.30;;
12350;SDS011;6240;51.538;7.696;2023-02-01T14:06:16;14.53;;;4.57;;
12350;SDS011;6240;51.538;7.696;2023-02-01T14:08:45;15.50;;;3.93;;
12350;SDS011;6240;51.538;7.696;2023-02-01T14:11:35;14.33;;;4.03;;
12350;SDS011;6240;51.538;7.696;2023-02-01T14:19:35;18.97;;;4.53;;
12350;SDS011;6240;51.538;7.696;2023-02-01T14:24:55;11.83;;;4.27;;
12350;SDS011;6240;51.538;7.696;2023-02-01T14:27:25;17.37;;;3.90;;
12350;SDS011;6240;51.538;7.696;2023-02-01T14:29:55;11.93;;;3.27;;
12350;SDS011;6240;51.538;7.696;2023-02-01T14:32:24;14.63;;;3.50;;
12350;SDS011;6240;51.538;7.696;2023-02-01T14:34:53;15.87;;;5.07;;
12350;SDS011;6240;51.538;7.696;2023-02-01T14:37:24;12.93;;;4.17;;
12350;SDS011;6240;51.538;7.696;2023-02-01T14:39:58;14.30;;;4.37;;
12350;SDS011;6240;51.538;7.696;2023-02-01T14:42:30;15.87;;;4.13;;
12350;SDS011;6240;51.538;7.696;2023-02-01T14:47:42;16.50;;;3.87;;
12350;SDS011;6240;51.538;7.696;2023-02-01T14:50:23;18.00;;;3.57;;
12350;SDS011;6240;51.538;7.696;2023-02-01T14:52:58;14.37;;;3.90;;
12350;SDS011;6240;51.538;7.696;2023-02-01T14:55:35;12.83;;;3.77;;
12350;SDS011;6240;51.538;7.696;2023-02-01T14:58:16;15.10;;;3.77;;
12350;SDS011;6240;51.538;7.696;2023-02-01T15:00:50;15.87;;;4.07;;
12350;SDS011;6240;51.538;7.696;2023-02-01T15:06:13;15.63;;;4.17;;
12350;SDS011;6240;51.538;7.696;2023-02-01T15:08:45;10.90;;;3.63;;
12350;SDS011;6240;51.538;7.696;2023-02-01T15:11:14;13.27;;;4.53;;
12350;SDS011;6240;51.538;7.696;2023-02-01T15:13:48;12.57;;;3.73;;
12350;SDS011;6240;51.538;7.696;2023-02-01T15:16:18;13.20;;;3.97;;
12350;SDS011;6240;51.538;7.696;2023-02-01T15:18:47;15.43;;;3.80;;
12350;SDS011;6240;51.538;7.696;2023-02-01T15:21:19;12.90;;;3.47;;
12350;SDS011;6240;51.538;7.696;2023-02-01T15:23:48;11.63;;;3.90;;
12350;SDS011;6240;51.538;7.696;2023-02-01T15:26:27;16.13;;;4.03;;
12350;SDS011;6240;51.538;7.696;2023-02-01T15:28:57;11.90;;;4.10;;
12350;SDS011;6240;51.538;7.696;2023-02-01T15:31:36;11.97;;;3.70;;
12350;SDS011;6240;51.538;7.696;2023-02-01T15:34:03;14.53;;;3.60;;
12350;SDS011;6240;51.538;7.696;2023-02-01T15:36:30;15.73;;;4.70;;
12350;SDS011;6240;51.538;7.696;2023-02-01T15:39:12;15.77;;;3.70;;
12350;SDS011;6240;51.538;7.696;2023-02-01T15:41:45;14.23;;;3.80;;
12350;SDS011;6240;51.538;7.696;2023-02-01T15:44:16;13.10;;;3.27;;
12350;SDS011;6240;51.538;7.696;2023-02-01T15:46:45;13.40;;;3.77;;
12350;SDS011;6240;51.538;7.696;2023-02-01T15:49:19;9.83;;;3.17;;
12350;SDS011;6240;51.538;7.696;2023-02-01T15:51:48;10.90;;;3.33;;
12350;SDS011;6240;51.538;7.696;2023-02-01T15:54:17;11.73;;;3.43;;
12350;SDS011;6240;51.538;7.696;2023-02-01T15:56:49;14.40;;;3.57;;
12350;SDS011;6240;51.538;7.696;2023-02-01T15:59:20;10.60;;;3.17;;
12350;SDS011;6240;51.538;7.696;2023-02-01T16:01:48;9.63;;;3.27;;
12350;SDS011;6240;51.538;7.696;2023-02-01T16:04:17;9.47;;;3.07;;
12350;SDS011;6240;51.538;7.696;2023-02-01T16:06:45;13.00;;;4.10;;
12350;SDS011;6240;51.538;7.696;2023-02-01T16:09:14;10.60;;;3.43;;
12350;SDS011;6240;51.538;7.696;2023-02-01T16:11:46;12.83;;;3.80;;
12350;SDS011;6240;51.538;7.696;2023-02-01T16:14:15;17.77;;;3.70;;
12350;SDS011;6240;51.538;7.696;2023-02-01T16:16:45;12.73;;;3.90;;
12350;SDS011;6240;51.538;7.696;2023-02-01T16:19:13;13.07;;;3.93;;
12350;SDS011;6240;51.538;7.696;2023-02-01T16:21:40;17.30;;;4.53;;
12350;SDS011;6240;51.538;7.696;2023-02-01T16:24:07;10.50;;;3.43;;
12350;SDS011;6240;51.538;7.696;2023-02-01T16:26:34;10.10;;;3.17;;
12350;SDS011;6240;51.538;7.696;2023-02-01T16:29:02;12.77;;;3.20;;